Vaasa

Airport
ICAO code: 
EFVA
Summary
ICAO Region: 
EUR
Territory: 
Location: 
Vaasa,
Coordinates: 
Aerial View: 
63° 2' 44.804" N, 21° 45' 40.828" E
Airport CFIT: 
Altimeter Temperature Error Correction
Airport GND: 
Aircraft Ground De/Anti Icing
Airport WX: 
Freezing Rain
Metar
Observation
EFVA 041120Z AUTO 06009KT CAVOK M13/M16 Q1013
Station
Vaasa
Date/Time
2021-12-04 11:20:00
Wind direction
60°
Wind speed
09 kts
Lowest cloud amount
clouds and visibility OK
Temperature
-13°C
Dew point
-16°C
Humidity
78%
QNH
1013 hPa
Weather condition
n/a

Description

Vaasa Airport (Vaasan lentoasema/Vasa flygplats) serves the Finnish city of Vaasa and is located 5.6 nm southeast of the city.

Climatology

Subarctic climate (Köppen climate classification Dfc) - long, usually very cold winters, and short, cool to mild summers.

Runways

Designator Length Width Surface Rops
16/34 2660 48 ASP Yes/Yes
Airport map: 
Aerial View: 

SKYbrary Partners:

Safety knowledge contributed by: